Chingolo, Zambia
Current Conditions -  °F | °C
As of 10:00 AM on Wednesday 26 Nov 2014 (Local Time) from FBKE Reporting Station
Clear Clear  
Wind Chill: 91°   Ceiling: Unl
Heat Index: 91°   Visibility: 6mi
Dew Point: 54°   Wind: 12mph
Humidity: 28%   Direction: 70°ENE
Pressure: 30.03"   Gusts: NA
Location:  12.53°S, 27.87°E
Report Text: FBKE 260800Z 07010KT 040V100 CAVOK 33/12 Q1017
Loading
Personal Weather Stations






























Interactive Weather Map New forecast layout! Learn more

10-Day Weather Forecast

Advertisements
Track Severe Weather on mobile